Waiteville, West Virginia
Current Conditions -  °F | °C
As of 1:15 AM on Friday 19 Dec 2014 (Local Time) from KBCB Reporting Station
Clear Clear  
Wind Chill: 24°   Ceiling: Unl
Heat Index: 32°   Visibility: 10mi
Dew Point: 20°   Wind: 9mph
Humidity: 61%   Direction: 290°WNW
Pressure: 30.12"   Gusts: 17mph
Location:  37.47°N, 80.42°W
Report Text: KBCB 190615Z AUTO 29008G15KT 10SM CLR 00/M07 A3012 RMK AO2 T00001067
Loading
Personal Weather Stations






























Interactive Weather Map New forecast layout! Learn more

10-Day Weather Forecast

Advertisements
Track Severe Weather on mobile